createdAt,value
2022-10-23T00:00:48.409Z,100936.47
2022-10-23T00:03:51.736Z,100931.06
2022-10-23T00:06:53.671Z,100918.13
2022-10-23T00:09:55.930Z,100931.44
2022-10-23T00:12:57.856Z,100931.03
2022-10-23T00:16:00.171Z,100937.38
2022-10-23T00:19:02.308Z,100937.75
2022-10-23T00:22:04.527Z,100947.03
2022-10-23T00:25:07.119Z,100954.47
2022-10-23T00:28:09.390Z,100957.53
2022-10-23T00:31:11.491Z,100950.88
2022-10-23T00:34:15.553Z,100966.84
2022-10-23T00:37:17.559Z,100967.88
2022-10-23T00:40:20.329Z,100971.19
2022-10-23T00:43:24.095Z,100973.66
2022-10-23T00:46:26.556Z,100973.75
2022-10-23T00:49:28.555Z,100982.44
2022-10-23T00:52:31.078Z,100976.78
2022-10-23T00:55:33.367Z,100973.31
2022-10-23T00:58:35.663Z,100990.34
2022-10-23T01:01:38.369Z,100996.06
2022-10-23T01:04:42.316Z,101002.22
2022-10-23T01:07:56.650Z,101004.13
2022-10-23T01:11:08.199Z,100999.06
2022-10-23T01:14:12.836Z,101003.09
2022-10-23T01:17:34.639Z,101006.75
2022-10-23T01:20:42.459Z,101011.47
2022-10-23T01:23:44.791Z,101009.94
2022-10-23T01:26:59.697Z,101008.22
2022-10-23T01:30:06.092Z,101016.59
2022-10-23T01:33:17.607Z,101020.94
2022-10-23T01:36:23.860Z,101026.41
2022-10-23T01:39:32.660Z,101028.53
2022-10-23T01:42:39.146Z,101024.28
2022-10-23T01:45:43.798Z,101018.56
2022-10-23T01:48:51.318Z,101016.19
2022-10-23T01:51:55.137Z,101023.00
2022-10-23T01:54:59.550Z,101020.00
2022-10-23T01:58:02.641Z,101021.97
2022-10-23T02:01:11.596Z,101012.34
2022-10-23T02:04:27.277Z,101008.59
2022-10-23T02:07:30.028Z,101008.69
2022-10-23T02:10:36.362Z,101003.47
2022-10-23T02:13:42.713Z,101014.81
2022-10-23T02:16:49.473Z,101017.47
2022-10-23T02:19:58.147Z,101011.41
2022-10-23T02:23:03.562Z,101012.25
2022-10-23T02:26:08.526Z,101016.84
2022-10-23T02:29:14.599Z,101016.94
2022-10-23T02:32:19.600Z,101010.28
2022-10-23T02:35:23.930Z,101019.16
2022-10-23T02:38:35.190Z,101025.62
2022-10-23T02:41:46.647Z,101023.75
2022-10-23T02:45:08.962Z,101036.28
2022-10-23T02:48:20.683Z,101044.53
2022-10-23T02:51:28.484Z,101045.81
2022-10-23T02:54:33.890Z,101052.12
2022-10-23T02:57:40.135Z,101048.53
2022-10-23T03:00:49.244Z,101053.81
2022-10-23T03:03:53.652Z,101050.56
2022-10-23T03:06:56.380Z,101059.19
2022-10-23T03:09:58.327Z,101052.12
2022-10-23T03:13:00.754Z,101055.59
2022-10-23T03:16:05.313Z,101059.03
2022-10-23T03:19:09.194Z,101072.06
2022-10-23T03:22:11.321Z,101061.25
2022-10-23T03:25:14.002Z,101070.53
2022-10-23T03:28:15.998Z,101068.41
2022-10-23T03:31:18.513Z,101064.25
2022-10-23T03:34:20.799Z,101065.62
2022-10-23T03:37:23.177Z,101066.81
2022-10-23T03:40:25.442Z,101061.28
2022-10-23T03:43:27.715Z,101067.25
2022-10-23T03:46:29.874Z,101069.88
2022-10-23T03:49:32.166Z,101071.00
2022-10-23T03:52:37.748Z,101081.81
2022-10-23T03:55:39.991Z,101081.81
2022-10-23T03:58:41.960Z,101081.56
2022-10-23T04:01:44.387Z,101083.59
2022-10-23T04:04:46.907Z,101078.16
2022-10-23T04:07:48.833Z,101074.37
2022-10-23T04:10:51.200Z,101081.63
2022-10-23T04:13:54.434Z,101092.19
2022-10-23T04:16:57.883Z,101080.94
2022-10-23T04:19:59.933Z,101077.00
2022-10-23T04:23:02.921Z,101079.41
2022-10-23T04:26:04.906Z,101072.59
2022-10-23T04:29:07.619Z,101066.38
2022-10-23T04:32:09.919Z,101064.81
2022-10-23T04:35:12.332Z,101068.41
2022-10-23T04:38:14.320Z,101066.94
2022-10-23T04:41:16.797Z,101060.81
2022-10-23T04:44:20.772Z,101064.88
2022-10-23T04:47:23.066Z,101057.37
2022-10-23T04:50:28.507Z,101066.56
2022-10-23T04:53:40.667Z,101072.00
2022-10-23T04:56:42.968Z,101076.38
2022-10-23T04:59:46.349Z,101081.47
2022-10-23T05:02:48.473Z,101092.44
2022-10-23T05:05:55.591Z,101094.63
2022-10-23T05:08:58.450Z,101096.09
2022-10-23T05:12:03.169Z,101091.22
2022-10-23T05:15:05.531Z,101097.75
2022-10-23T05:18:13.117Z,101092.06
2022-10-23T05:21:20.841Z,101093.00
2022-10-23T05:24:24.738Z,101089.50
2022-10-23T05:27:28.946Z,101089.25
2022-10-23T05:30:33.111Z,101091.50
2022-10-23T05:33:37.253Z,101083.44
2022-10-23T05:36:40.002Z,101087.41
2022-10-23T05:39:42.634Z,101093.31
2022-10-23T05:42:45.615Z,101102.16
2022-10-23T05:45:48.621Z,101107.66
2022-10-23T05:48:52.113Z,101116.19
2022-10-23T05:51:55.046Z,101108.78
2022-10-23T05:54:57.627Z,101114.97
2022-10-23T05:58:01.690Z,101106.88
2022-10-23T06:01:07.132Z,101102.63
2022-10-23T06:04:11.197Z,101098.84
2022-10-23T06:07:15.429Z,101100.75
2022-10-23T06:10:18.227Z,101101.09
2022-10-23T06:13:20.495Z,101111.75
2022-10-23T06:16:27.012Z,101119.28
2022-10-23T06:19:29.163Z,101119.69
2022-10-23T06:22:31.703Z,101121.31
2022-10-23T06:25:37.046Z,101120.81
2022-10-23T06:28:40.066Z,101127.22
2022-10-23T06:31:42.045Z,101134.78
2022-10-23T06:34:44.377Z,101145.56
2022-10-23T06:37:46.529Z,101141.34
2022-10-23T06:40:56.758Z,101152.44
2022-10-23T06:43:59.202Z,101150.28
2022-10-23T06:47:02.231Z,101158.53
2022-10-23T06:50:11.667Z,101157.31
2022-10-23T06:53:18.049Z,101153.97
2022-10-23T06:56:20.596Z,101160.72
2022-10-23T06:59:23.134Z,101173.09
2022-10-23T07:02:26.916Z,101172.91
2022-10-23T07:05:29.623Z,101167.72
2022-10-23T07:08:32.235Z,101172.06
2022-10-23T07:11:38.738Z,101176.69
2022-10-23T07:14:40.962Z,101171.50
2022-10-23T07:17:43.500Z,101168.47
2022-10-23T07:20:49.385Z,101175.28
2022-10-23T07:23:52.109Z,101176.59
2022-10-23T07:26:54.158Z,101184.06
2022-10-23T07:29:58.581Z,101183.06
2022-10-23T07:33:03.892Z,101181.12
2022-10-23T07:36:10.907Z,101180.44
2022-10-23T07:39:13.018Z,101180.13
2022-10-23T07:42:16.389Z,101180.78
2022-10-23T07:45:18.475Z,101178.59
2022-10-23T07:48:21.971Z,101170.62
2022-10-23T07:51:24.578Z,101172.50
2022-10-23T07:54:31.990Z,101172.91
2022-10-23T07:57:37.850Z,101178.56
2022-10-23T08:00:43.062Z,101178.12
2022-10-23T08:03:46.476Z,101173.84
2022-10-23T08:06:48.685Z,101175.56
2022-10-23T08:09:51.354Z,101176.81
2022-10-23T08:12:53.294Z,101179.91
2022-10-23T08:15:56.702Z,101168.38
2022-10-23T08:19:01.197Z,101162.37
2022-10-23T08:22:04.511Z,101161.84
2022-10-23T08:25:07.675Z,101166.47
2022-10-23T08:28:11.597Z,101173.44
2022-10-23T08:31:15.525Z,101168.09
2022-10-23T08:34:20.842Z,101172.81
2022-10-23T08:37:23.800Z,101167.09
2022-10-23T08:40:26.454Z,101162.53
2022-10-23T08:43:50.360Z,101163.00
2022-10-23T08:47:00.316Z,101177.28
2022-10-23T08:50:22.555Z,101182.16
2022-10-23T08:53:29.465Z,101175.56
2022-10-23T08:56:39.859Z,101184.06
2022-10-23T08:59:50.167Z,101171.94
2022-10-23T09:02:53.460Z,101171.09
2022-10-23T09:06:01.857Z,101156.84
2022-10-23T09:09:03.839Z,101157.34
2022-10-23T09:12:12.705Z,101171.34
2022-10-23T09:15:23.243Z,101165.78
2022-10-23T09:18:25.641Z,101169.16
2022-10-23T09:21:28.323Z,101166.06
2022-10-23T09:24:32.846Z,101165.94
2022-10-23T09:27:34.878Z,101162.87
2022-10-23T09:30:38.643Z,101162.31
2022-10-23T09:33:40.903Z,101166.63
2022-10-23T09:36:49.028Z,101182.78
2022-10-23T09:40:01.716Z,101185.59
2022-10-23T09:43:12.602Z,101186.19
2022-10-23T09:46:14.956Z,101186.16
2022-10-23T09:49:22.150Z,101186.56
2022-10-23T09:52:25.943Z,101183.56
2022-10-23T09:55:28.494Z,101190.59
2022-10-23T09:58:32.752Z,101179.47
2022-10-23T10:01:37.501Z,101190.28
2022-10-23T10:04:41.839Z,101169.81
2022-10-23T10:07:53.700Z,101178.66
2022-10-23T10:11:10.615Z,101183.00
2022-10-23T10:14:25.408Z,101177.78
2022-10-23T10:17:27.842Z,101165.28
2022-10-23T10:20:40.115Z,101161.38
2022-10-23T10:24:11.611Z,101155.22
2022-10-23T10:27:32.097Z,101156.47
2022-10-23T10:30:41.404Z,101148.19
2022-10-23T10:34:02.317Z,101149.16
2022-10-23T10:37:17.648Z,101139.38
2022-10-23T10:40:29.644Z,101138.34
2022-10-23T10:43:35.080Z,101140.53
2022-10-23T10:46:56.074Z,101129.59
2022-10-23T10:50:14.765Z,101136.03
2022-10-23T10:53:28.167Z,101132.47
2022-10-23T10:56:33.368Z,101126.69
2022-10-23T10:59:38.219Z,101117.38
2022-10-23T11:02:48.509Z,101108.19
2022-10-23T11:05:51.973Z,101111.78
2022-10-23T11:09:15.580Z,101091.13
2022-10-23T11:12:18.455Z,101094.91
2022-10-23T11:15:42.107Z,101085.84
2022-10-23T11:18:46.680Z,101080.63
2022-10-23T11:21:56.471Z,101080.44
2022-10-23T11:25:06.396Z,101087.75
2022-10-23T11:28:11.798Z,101084.78
2022-10-23T11:31:24.583Z,101085.97
2022-10-23T11:34:36.237Z,101086.31
2022-10-23T11:37:38.259Z,101089.34
2022-10-23T11:44:01.544Z,101073.66
2022-10-23T11:47:05.746Z,101073.69
2022-10-23T11:50:07.842Z,101074.37
2022-10-23T11:53:29.147Z,101081.41
2022-10-23T11:56:31.278Z,101076.56
2022-10-23T11:59:49.957Z,101072.72
2022-10-23T12:02:59.011Z,101075.44
2022-10-23T12:06:04.843Z,101061.22
2022-10-23T12:09:22.391Z,101056.50
2022-10-23T12:12:34.041Z,101062.22
2022-10-23T12:15:36.258Z,101054.41
2022-10-23T12:18:53.030Z,101054.50
2022-10-23T12:21:58.683Z,101045.78
2022-10-23T12:25:04.353Z,101041.44
2022-10-23T12:28:22.361Z,101038.22
2022-10-23T12:31:34.387Z,101035.84
2022-10-23T12:34:43.891Z,101026.84
2022-10-23T12:37:54.612Z,101031.78
2022-10-23T12:41:10.209Z,101030.75
2022-10-23T12:44:12.748Z,101021.06
2022-10-23T12:47:18.645Z,101018.69
2022-10-23T12:50:26.079Z,101023.22
2022-10-23T12:53:28.370Z,101015.72
2022-10-23T12:56:35.797Z,101014.75
2022-10-23T12:59:39.098Z,101004.53
2022-10-23T13:02:41.600Z,101002.81
2022-10-23T13:05:44.508Z,100995.22
2022-10-23T13:08:48.152Z,100997.94
2022-10-23T13:11:52.378Z,100994.62
2022-10-23T13:14:57.785Z,100989.84
2022-10-23T13:18:02.029Z,100989.34
2022-10-23T13:21:04.755Z,100981.03
2022-10-23T13:24:19.015Z,100979.75
2022-10-23T13:27:25.654Z,100984.09
2022-10-23T13:30:32.393Z,100976.88
2022-10-23T13:33:39.609Z,100966.47
2022-10-23T13:36:53.272Z,100962.66
2022-10-23T13:40:00.809Z,100956.69
2022-10-23T13:43:02.863Z,100955.87
2022-10-23T13:46:05.424Z,100952.41
2022-10-23T13:49:07.604Z,100953.56
2022-10-23T13:52:12.730Z,100963.00
2022-10-23T13:55:24.535Z,100961.31
2022-10-23T13:58:27.122Z,100953.13
2022-10-23T14:01:30.780Z,100948.44
2022-10-23T14:04:33.627Z,100945.78
2022-10-23T14:07:35.712Z,100939.56
2022-10-23T14:10:38.580Z,100938.28
2022-10-23T14:13:40.875Z,100946.44
2022-10-23T14:16:43.594Z,100934.06
2022-10-23T14:19:45.962Z,100924.75
2022-10-23T14:22:48.232Z,100921.97
2022-10-23T14:25:50.335Z,100923.06
2022-10-23T14:28:53.743Z,100921.53
2022-10-23T14:31:55.711Z,100918.97
2022-10-23T14:34:58.159Z,100918.69
2022-10-23T14:38:00.121Z,100921.91
2022-10-23T14:41:02.454Z,100910.63
2022-10-23T14:44:04.762Z,100915.97
2022-10-23T14:47:07.171Z,100908.66
2022-10-23T14:50:11.044Z,100899.88
2022-10-23T14:53:13.903Z,100890.47
2022-10-23T14:56:16.167Z,100887.47
2022-10-23T14:59:18.403Z,100889.97
2022-10-23T15:02:20.409Z,100896.72
2022-10-23T15:05:22.842Z,100891.19
2022-10-23T15:08:24.887Z,100893.56
2022-10-23T15:11:28.729Z,100894.59
2022-10-23T15:14:30.857Z,100886.44
2022-10-23T15:17:34.086Z,100884.87
2022-10-23T15:20:36.192Z,100868.72
2022-10-23T15:23:39.842Z,100861.38
2022-10-23T15:26:43.801Z,100850.22
2022-10-23T15:29:46.993Z,100840.97
2022-10-23T15:32:49.008Z,100860.81
2022-10-23T15:35:52.073Z,100862.47
2022-10-23T15:38:54.151Z,100869.66
2022-10-23T15:41:56.566Z,100870.81
2022-10-23T15:44:58.643Z,100868.28
2022-10-23T15:48:01.745Z,100867.19
2022-10-23T15:51:03.885Z,100869.44
2022-10-23T15:54:07.005Z,100879.00
2022-10-23T15:57:09.947Z,100870.66
2022-10-23T16:00:15.893Z,100872.06
2022-10-23T16:03:20.791Z,100876.97
2022-10-23T16:06:23.117Z,100873.34
2022-10-23T16:09:25.580Z,100870.91
2022-10-23T16:12:28.078Z,100883.59
2022-10-23T16:15:30.551Z,100890.59
2022-10-23T16:18:32.581Z,100881.47
2022-10-23T16:21:36.158Z,100876.84
2022-10-23T16:24:38.402Z,100880.47
2022-10-23T16:27:40.873Z,100887.53
2022-10-23T16:30:43.790Z,100903.81
2022-10-23T16:33:46.217Z,100912.47
2022-10-23T16:36:49.404Z,100918.59
2022-10-23T16:39:52.507Z,100921.31
2022-10-23T16:42:57.037Z,100914.16
2022-10-23T16:46:29.331Z,100917.53
2022-10-23T16:49:32.214Z,100910.09
2022-10-23T16:52:34.992Z,100902.28
2022-10-23T16:55:39.950Z,100902.38
2022-10-23T16:58:42.618Z,100900.44
2022-10-23T17:01:44.725Z,100926.03
2022-10-23T17:04:47.937Z,100931.81
2022-10-23T17:07:50.284Z,100933.88
2022-10-23T17:11:03.212Z,100940.66
2022-10-23T17:14:11.275Z,100943.84
2022-10-23T17:17:13.717Z,100938.37
2022-10-23T17:20:15.701Z,100939.94
2022-10-23T17:23:18.005Z,100927.09
2022-10-23T17:26:21.044Z,100935.25
2022-10-23T17:29:23.447Z,100931.56
2022-10-23T17:32:25.520Z,100918.59
2022-10-23T17:35:28.052Z,100916.38
2022-10-23T17:38:30.071Z,100918.31
2022-10-23T17:41:32.458Z,100917.47
2022-10-23T17:44:34.654Z,100916.91
2022-10-23T17:47:37.104Z,100919.13
2022-10-23T17:50:39.485Z,100918.47
2022-10-23T17:53:42.853Z,100907.59
2022-10-23T17:56:44.941Z,100901.66
2022-10-23T17:59:47.310Z,100892.09
2022-10-23T18:02:49.392Z,100901.66
2022-10-23T18:05:51.773Z,100898.00
2022-10-23T18:08:54.010Z,100892.53
2022-10-23T18:11:56.620Z,100908.56
2022-10-23T18:14:58.612Z,100907.59
2022-10-23T18:18:01.095Z,100901.09
2022-10-23T18:21:03.710Z,100908.50
2022-10-23T18:24:06.226Z,100910.66
2022-10-23T18:27:08.349Z,100910.91
2022-10-23T18:30:11.043Z,100912.44
2022-10-23T18:33:13.663Z,100905.84
2022-10-23T18:36:18.225Z,100901.03
2022-10-23T18:39:22.664Z,100912.97
2022-10-23T18:42:25.347Z,100906.34
2022-10-23T18:45:27.381Z,100902.69
2022-10-23T18:48:30.958Z,100895.06
2022-10-23T18:51:34.310Z,100890.47
2022-10-23T18:54:36.977Z,100898.34
2022-10-23T18:57:39.836Z,100889.47
2022-10-23T19:00:42.677Z,100896.50
2022-10-23T19:03:45.081Z,100905.38
2022-10-23T19:06:48.372Z,100902.56
2022-10-23T19:09:51.000Z,100899.06
2022-10-23T19:12:53.512Z,100898.34
2022-10-23T19:15:56.230Z,100898.19
2022-10-23T19:19:00.605Z,100897.34
2022-10-23T19:22:04.319Z,100901.59
2022-10-23T19:25:33.227Z,100902.97
2022-10-23T19:28:40.131Z,100890.25
2022-10-23T19:31:48.624Z,100905.81
2022-10-23T19:34:50.775Z,100899.06
2022-10-23T19:37:53.393Z,100899.84
2022-10-23T19:40:55.576Z,100904.66
2022-10-23T19:43:58.169Z,100905.50
2022-10-23T19:47:00.984Z,100904.19
2022-10-23T19:50:04.851Z,100888.81
2022-10-23T19:53:06.909Z,100894.87
2022-10-23T19:56:10.529Z,100892.47
2022-10-23T19:59:15.762Z,100894.81
2022-10-23T20:02:19.593Z,100893.44
2022-10-23T20:05:22.163Z,100898.75
2022-10-23T20:08:24.213Z,100895.78
2022-10-23T20:11:29.085Z,100912.13
2022-10-23T20:14:31.500Z,100912.25
2022-10-23T20:17:34.008Z,100916.75
2022-10-23T20:20:39.719Z,100920.97
2022-10-23T20:23:42.579Z,100905.59
2022-10-23T20:26:45.835Z,100906.16
2022-10-23T20:29:48.689Z,100905.81
2022-10-23T20:32:51.107Z,100903.38
2022-10-23T20:35:53.609Z,100909.81
2022-10-23T20:38:56.334Z,100897.56
2022-10-23T20:42:00.354Z,100897.94
2022-10-23T20:45:03.581Z,100886.44
2022-10-23T20:48:06.257Z,100872.06
2022-10-23T20:51:10.266Z,100874.63
2022-10-23T20:54:13.160Z,100877.75
2022-10-23T20:57:17.946Z,100876.84
2022-10-23T21:00:23.920Z,100868.50
2022-10-23T21:03:26.380Z,100857.37
2022-10-23T21:06:41.034Z,100865.38
2022-10-23T21:09:53.055Z,100853.81
2022-10-23T21:12:55.733Z,100857.72
2022-10-23T21:15:57.882Z,100858.97
2022-10-23T21:19:00.969Z,100859.09
2022-10-23T21:22:02.995Z,100855.44
2022-10-23T21:25:05.746Z,100849.69
2022-10-23T21:28:08.123Z,100851.53
2022-10-23T21:31:13.072Z,100863.72
2022-10-23T21:34:15.112Z,100864.72
2022-10-23T21:37:17.538Z,100863.47
2022-10-23T21:40:19.531Z,100854.28
2022-10-23T21:43:21.840Z,100856.22
2022-10-23T21:46:24.705Z,100863.13
2022-10-23T21:49:27.202Z,100875.13
2022-10-23T21:52:30.244Z,100870.87
2022-10-23T21:55:33.196Z,100873.94
2022-10-23T21:58:36.129Z,100861.06
2022-10-23T22:01:39.617Z,100855.84
2022-10-23T22:04:42.107Z,100848.56
2022-10-23T22:07:46.448Z,100848.44
2022-10-23T22:10:49.488Z,100851.50
2022-10-23T22:13:51.763Z,100854.88
2022-10-23T22:16:54.746Z,100863.41
2022-10-23T22:19:56.848Z,100849.69
2022-10-23T22:22:59.284Z,100856.81
2022-10-23T22:26:05.313Z,100864.16
2022-10-23T22:29:09.490Z,100842.81
2022-10-23T22:32:11.559Z,100855.50
2022-10-23T22:35:14.087Z,100855.44
2022-10-23T22:38:16.464Z,100852.62
2022-10-23T22:41:19.417Z,100860.81
2022-10-23T22:44:21.506Z,100864.34
2022-10-23T22:47:23.883Z,100868.53
2022-10-23T22:50:25.926Z,100861.38
2022-10-23T22:53:28.898Z,100856.94
2022-10-23T22:56:31.008Z,100849.78
2022-10-23T22:59:33.562Z,100853.19
2022-10-23T23:02:36.514Z,100858.75
2022-10-23T23:05:43.521Z,100845.75
2022-10-23T23:08:46.531Z,100843.06
2022-10-23T23:11:52.811Z,100847.94
2022-10-23T23:14:55.072Z,100839.09
2022-10-23T23:17:57.953Z,100837.06
2022-10-23T23:21:01.031Z,100834.88
2022-10-23T23:24:03.608Z,100837.06
2022-10-23T23:27:05.608Z,100841.84
2022-10-23T23:30:09.061Z,100843.94
2022-10-23T23:33:11.888Z,100844.31
2022-10-23T23:36:16.088Z,100844.41
2022-10-23T23:39:18.066Z,100841.66
2022-10-23T23:42:20.400Z,100839.69
2022-10-23T23:45:22.363Z,100832.41
2022-10-23T23:48:25.462Z,100822.19
2022-10-23T23:51:27.439Z,100829.22
2022-10-23T23:54:29.890Z,100827.94
2022-10-23T23:57:32.073Z,100829.16
